createdAt,value
2022-07-26T00:00:13.402Z,63.50
2022-07-26T00:02:48.092Z,59.10
2022-07-26T00:05:17.368Z,60.00
2022-07-26T00:07:45.307Z,66.70
2022-07-26T00:10:13.512Z,69.20
2022-07-26T00:12:41.030Z,64.40
2022-07-26T00:15:10.626Z,70.00
2022-07-26T00:17:38.470Z,62.00
2022-07-26T00:20:06.134Z,59.90
2022-07-26T00:22:35.920Z,60.30
2022-07-26T00:25:06.260Z,64.50
2022-07-26T00:27:37.380Z,63.50
2022-07-26T00:30:10.012Z,61.30
2022-07-26T00:32:37.827Z,55.40
2022-07-26T00:35:05.315Z,55.40
2022-07-26T00:37:32.318Z,52.90
2022-07-26T00:39:59.269Z,44.80
2022-07-26T00:42:26.247Z,37.80
2022-07-26T00:44:53.145Z,37.50
2022-07-26T00:47:20.049Z,34.20
2022-07-26T00:49:47.025Z,30.00
2022-07-26T00:52:14.102Z,33.50
2022-07-26T00:54:45.687Z,24.90
2022-07-26T00:57:15.924Z,44.30
2022-07-26T00:59:43.433Z,62.70
2022-07-26T01:02:11.283Z,99.90
2022-07-26T01:04:39.978Z,1.00
2022-07-26T01:07:15.243Z,99.90
2022-07-26T01:09:43.080Z,1.00
2022-07-26T01:12:11.147Z,1.00
2022-07-26T01:14:38.192Z,8.40
2022-07-26T01:17:05.159Z,1.00
2022-07-26T01:19:32.091Z,1.00
2022-07-26T01:21:59.301Z,19.20
2022-07-26T01:24:26.287Z,1.00
2022-07-26T01:26:55.586Z,1.00
2022-07-26T01:29:23.416Z,99.90
2022-07-26T01:32:04.073Z,97.70
2022-07-26T01:34:31.293Z,99.90
2022-07-26T01:36:58.556Z,99.90
2022-07-26T01:39:25.441Z,15.40
2022-07-26T01:41:53.213Z,99.90
2022-07-26T01:44:20.125Z,1.00
2022-07-26T01:46:47.068Z,1.00
2022-07-26T01:49:14.180Z,99.90
2022-07-26T01:51:41.248Z,39.50
2022-07-26T01:54:08.350Z,72.10
2022-07-26T01:56:35.551Z,99.90
2022-07-26T01:59:02.851Z,99.90
2022-07-26T02:01:38.863Z,1.00
2022-07-26T02:04:08.977Z,1.00
2022-07-26T02:06:37.206Z,99.90
2022-07-26T02:09:05.913Z,1.00
2022-07-26T02:11:34.576Z,1.00
2022-07-26T02:14:03.360Z,99.90
2022-07-26T02:16:30.485Z,99.90
2022-07-26T02:18:57.415Z,99.90
2022-07-26T02:21:24.306Z,99.90
2022-07-26T02:23:51.182Z,99.90
2022-07-26T02:26:18.069Z,1.00
2022-07-26T02:28:44.987Z,99.90
2022-07-26T02:31:11.914Z,1.00
2022-07-26T02:33:42.626Z,1.00
2022-07-26T02:36:09.562Z,1.00
2022-07-26T02:38:36.431Z,1.00
2022-07-26T02:41:03.362Z,1.00
2022-07-26T02:43:31.744Z,99.90
2022-07-26T02:46:01.749Z,99.90
2022-07-26T02:48:32.388Z,99.90
2022-07-26T02:50:59.777Z,99.90
2022-07-26T02:53:26.741Z,99.90
2022-07-26T02:55:53.639Z,56.90
2022-07-26T02:58:21.781Z,99.90
2022-07-26T03:00:48.849Z,99.90
2022-07-26T03:03:15.979Z,99.90
2022-07-26T03:05:43.288Z,1.00
2022-07-26T03:08:10.208Z,1.00
2022-07-26T03:10:37.181Z,1.00
2022-07-26T03:13:04.094Z,1.00
2022-07-26T03:15:31.145Z,99.90
2022-07-26T03:17:58.191Z,1.00
2022-07-26T03:20:25.259Z,99.90
2022-07-26T03:22:52.190Z,99.90
2022-07-26T03:25:19.196Z,1.00
2022-07-26T03:27:46.129Z,1.00
2022-07-26T03:30:13.454Z,1.00
2022-07-26T03:32:40.455Z,99.90
2022-07-26T03:35:08.198Z,1.00
2022-07-26T03:37:45.039Z,1.00
2022-07-26T03:40:15.146Z,99.90
2022-07-26T03:42:42.133Z,1.00
2022-07-26T03:45:09.405Z,1.00
2022-07-26T03:47:37.441Z,76.10
2022-07-26T03:50:05.899Z,99.90
2022-07-26T03:52:32.908Z,99.90
2022-07-26T03:54:59.805Z,1.00
2022-07-26T03:57:28.181Z,99.90
2022-07-26T03:59:55.956Z,1.00
2022-07-26T04:02:22.960Z,99.90
2022-07-26T04:04:49.988Z,99.90
2022-07-26T04:07:16.880Z,99.90
2022-07-26T04:09:44.048Z,99.90
2022-07-26T04:12:10.930Z,99.90
2022-07-26T04:14:38.629Z,99.90
2022-07-26T04:17:05.628Z,4.00
2022-07-26T04:19:32.633Z,1.00
2022-07-26T04:22:04.700Z,75.30
2022-07-26T04:24:31.543Z,1.00
2022-07-26T04:26:58.449Z,99.90
2022-07-26T04:29:25.356Z,1.00
2022-07-26T04:31:52.414Z,1.00
2022-07-26T04:34:19.326Z,30.50
2022-07-26T04:36:46.175Z,1.00
2022-07-26T04:39:13.058Z,1.00
2022-07-26T04:41:39.974Z,1.00
2022-07-26T04:44:07.116Z,1.00
2022-07-26T04:46:34.371Z,99.90
2022-07-26T04:49:01.479Z,99.90
2022-07-26T04:51:28.434Z,1.00
2022-07-26T04:53:55.342Z,67.00
2022-07-26T04:56:22.288Z,99.90
2022-07-26T04:58:49.154Z,99.90
2022-07-26T05:01:16.063Z,97.20
2022-07-26T05:03:43.065Z,99.90
2022-07-26T05:06:09.983Z,1.00
2022-07-26T05:08:36.934Z,20.30
2022-07-26T05:11:04.341Z,99.90
2022-07-26T05:13:31.345Z,99.90
2022-07-26T05:15:59.775Z,99.90
2022-07-26T05:18:27.321Z,99.90
2022-07-26T05:20:56.986Z,1.00
2022-07-26T05:23:23.922Z,99.90
2022-07-26T05:25:50.942Z,1.00
2022-07-26T05:28:17.868Z,1.00
2022-07-26T05:30:44.997Z,1.00
2022-07-26T05:33:16.361Z,99.90
2022-07-26T05:35:43.844Z,1.00
2022-07-26T05:38:10.745Z,1.00
2022-07-26T05:40:37.724Z,1.00
2022-07-26T05:43:04.945Z,1.00
2022-07-26T05:45:31.974Z,1.00
2022-07-26T05:47:58.883Z,99.90
2022-07-26T05:50:25.823Z,99.90
2022-07-26T05:52:52.813Z,1.00
2022-07-26T05:55:19.881Z,28.40
2022-07-26T05:57:49.956Z,1.00
2022-07-26T06:00:17.281Z,99.90
2022-07-26T06:02:44.353Z,99.90
2022-07-26T06:05:11.254Z,1.00
2022-07-26T06:07:38.557Z,1.00
2022-07-26T06:10:06.167Z,1.00
2022-07-26T06:12:33.193Z,1.00
2022-07-26T06:15:00.126Z,99.90
2022-07-26T06:17:30.207Z,99.90
2022-07-26T06:19:58.437Z,99.90
2022-07-26T06:22:25.936Z,99.90
2022-07-26T06:24:52.994Z,1.00
2022-07-26T06:27:20.001Z,1.00
2022-07-26T06:29:48.581Z,1.00
2022-07-26T06:32:15.791Z,1.00
2022-07-26T06:34:42.747Z,1.00
2022-07-26T06:37:09.663Z,99.90
2022-07-26T06:39:36.611Z,1.00
2022-07-26T06:42:03.653Z,1.00
2022-07-26T06:44:30.557Z,1.00
2022-07-26T06:46:57.438Z,1.00
2022-07-26T06:49:24.532Z,1.00
2022-07-26T06:51:51.500Z,99.90
2022-07-26T06:54:18.426Z,1.00
2022-07-26T06:56:45.313Z,1.00
2022-07-26T06:59:12.222Z,1.00
2022-07-26T07:01:58.478Z,1.00
2022-07-26T07:04:26.044Z,99.90
2022-07-26T07:06:53.028Z,99.90
2022-07-26T07:09:20.036Z,99.90
2022-07-26T07:11:52.316Z,99.90
2022-07-26T07:14:25.691Z,99.90
2022-07-26T07:16:52.670Z,99.90
2022-07-26T07:19:19.833Z,99.90
2022-07-26T07:21:46.761Z,99.90
2022-07-26T07:24:13.778Z,99.90
2022-07-26T07:26:41.594Z,99.90
2022-07-26T07:29:12.700Z,99.90
2022-07-26T07:31:48.723Z,99.90
2022-07-26T07:34:22.955Z,99.90
2022-07-26T07:36:52.051Z,99.90
2022-07-26T07:39:19.450Z,99.90
2022-07-26T07:41:47.434Z,99.90
2022-07-26T07:44:14.664Z,99.90
2022-07-26T07:46:41.560Z,99.90
2022-07-26T07:49:08.862Z,99.90
2022-07-26T07:51:36.321Z,99.90
2022-07-26T07:54:05.848Z,99.90
2022-07-26T07:56:33.621Z,99.90
2022-07-26T07:59:00.981Z,99.90
2022-07-26T08:01:39.875Z,99.90
2022-07-26T08:04:08.858Z,99.90
2022-07-26T08:06:36.616Z,99.90
2022-07-26T08:09:05.698Z,99.90
2022-07-26T08:11:33.926Z,99.90
2022-07-26T08:14:01.577Z,99.90
2022-07-26T08:16:28.616Z,98.50
2022-07-26T08:18:57.631Z,67.80
2022-07-26T08:21:29.258Z,59.20
2022-07-26T08:23:57.575Z,45.90
2022-07-26T08:26:25.201Z,42.10
2022-07-26T08:28:58.538Z,22.10
2022-07-26T08:31:28.208Z,9.40
2022-07-26T08:33:55.379Z,1.00
2022-07-26T08:36:22.373Z,1.00
2022-07-26T08:38:49.615Z,1.00
2022-07-26T08:41:18.117Z,1.00
2022-07-26T08:43:51.935Z,1.00
2022-07-26T08:46:25.217Z,1.00
2022-07-26T08:48:52.601Z,1.00
2022-07-26T08:51:22.032Z,1.00
2022-07-26T08:53:49.642Z,1.00
2022-07-26T08:56:16.567Z,1.00
2022-07-26T08:58:43.952Z,1.00
2022-07-26T09:01:13.256Z,1.00
2022-07-26T09:03:41.713Z,1.00
2022-07-26T09:06:15.650Z,1.00
2022-07-26T09:08:44.199Z,1.00
2022-07-26T09:11:33.153Z,1.00
2022-07-26T09:14:02.199Z,1.00
2022-07-26T09:16:29.878Z,1.00
2022-07-26T09:19:16.052Z,1.00
2022-07-26T09:21:43.036Z,1.00
2022-07-26T09:24:10.519Z,1.00
2022-07-26T09:26:37.708Z,1.00
2022-07-26T09:29:12.566Z,1.00
2022-07-26T09:31:40.468Z,1.00
2022-07-26T09:34:08.482Z,1.00
2022-07-26T09:36:51.630Z,1.00
2022-07-26T09:39:33.299Z,1.00
2022-07-26T09:42:27.322Z,1.00
2022-07-26T09:44:56.797Z,1.00
2022-07-26T09:47:37.170Z,1.00
2022-07-26T09:50:16.463Z,1.00
2022-07-26T09:53:07.531Z,1.00
2022-07-26T09:55:45.050Z,1.00
2022-07-26T09:58:14.386Z,1.00
2022-07-26T10:00:42.779Z,1.00
2022-07-26T10:03:09.925Z,1.00
2022-07-26T10:05:37.776Z,1.00
2022-07-26T10:08:06.042Z,1.00
2022-07-26T10:10:38.845Z,1.00
2022-07-26T10:13:07.504Z,1.00
2022-07-26T10:15:46.724Z,1.00
2022-07-26T10:18:39.127Z,1.00
2022-07-26T10:21:16.542Z,1.00
2022-07-26T10:23:45.842Z,1.00
2022-07-26T10:26:32.600Z,1.00
2022-07-26T10:29:17.958Z,1.00
2022-07-26T10:31:49.678Z,1.00
2022-07-26T10:34:36.487Z,1.00
2022-07-26T10:37:07.226Z,1.00
2022-07-26T10:39:34.491Z,1.00
2022-07-26T10:42:03.052Z,1.00
2022-07-26T10:44:34.673Z,1.00
2022-07-26T10:47:07.744Z,1.00
2022-07-26T10:49:40.742Z,1.00
2022-07-26T10:52:13.440Z,1.00
2022-07-26T10:54:58.936Z,1.00
2022-07-26T10:57:33.480Z,1.00
2022-07-26T11:00:02.172Z,1.00
2022-07-26T11:02:35.903Z,1.00
2022-07-26T11:05:14.741Z,1.00
2022-07-26T11:07:53.336Z,1.00
2022-07-26T11:10:24.399Z,1.00
2022-07-26T11:13:03.484Z,1.00
2022-07-26T11:15:30.581Z,1.00
2022-07-26T11:18:08.059Z,1.00
2022-07-26T11:20:34.985Z,1.00
2022-07-26T11:23:02.027Z,1.00
2022-07-26T11:25:29.361Z,1.00
2022-07-26T11:28:07.386Z,1.00
2022-07-26T11:30:35.319Z,1.00
2022-07-26T11:33:02.195Z,1.00
2022-07-26T11:35:30.109Z,1.00
2022-07-26T11:38:07.814Z,1.00
2022-07-26T11:40:56.581Z,1.00
2022-07-26T11:43:23.447Z,1.00
2022-07-26T11:45:53.404Z,1.00
2022-07-26T11:48:20.435Z,1.00
2022-07-26T11:50:47.314Z,1.00
2022-07-26T11:53:23.403Z,1.00
2022-07-26T11:55:50.340Z,1.00
2022-07-26T11:58:17.407Z,1.00
2022-07-26T12:00:44.387Z,1.00
2022-07-26T12:03:11.361Z,1.00
2022-07-26T12:05:38.563Z,1.00
2022-07-26T12:08:07.426Z,1.00
2022-07-26T12:10:34.760Z,1.00
2022-07-26T12:13:24.502Z,1.00
2022-07-26T12:15:53.178Z,1.00
2022-07-26T12:18:29.299Z,1.00
2022-07-26T12:21:07.200Z,1.00
2022-07-26T12:23:42.478Z,1.00
2022-07-26T12:26:38.957Z,1.00
2022-07-26T12:29:24.416Z,1.00
2022-07-26T12:32:10.285Z,1.00
2022-07-26T12:34:40.341Z,1.00
2022-07-26T12:37:17.296Z,1.00
2022-07-26T12:40:03.387Z,1.00
2022-07-26T12:42:35.996Z,1.00
2022-07-26T12:45:04.470Z,1.00
2022-07-26T12:47:31.345Z,1.00
2022-07-26T12:49:58.326Z,1.00
2022-07-26T12:52:26.993Z,1.00
2022-07-26T12:54:54.300Z,1.00
2022-07-26T12:57:21.916Z,1.00
2022-07-26T12:59:49.727Z,1.00
2022-07-26T13:02:20.855Z,1.00
2022-07-26T13:04:48.923Z,1.00
2022-07-26T13:07:17.189Z,1.00
2022-07-26T13:09:45.473Z,1.00
2022-07-26T13:12:13.693Z,1.00
2022-07-26T13:14:41.615Z,1.00
2022-07-26T13:17:09.845Z,1.00
2022-07-26T13:19:37.907Z,1.00
2022-07-26T13:22:06.253Z,1.00
2022-07-26T13:24:34.185Z,1.00
2022-07-26T13:27:01.908Z,1.00
2022-07-26T13:29:29.933Z,1.00
2022-07-26T13:31:59.539Z,1.00
2022-07-26T13:34:30.457Z,1.00
2022-07-26T13:37:01.617Z,1.00
2022-07-26T13:39:35.384Z,1.00
2022-07-26T13:42:02.276Z,1.00
2022-07-26T13:44:29.206Z,1.00
2022-07-26T13:46:56.250Z,1.00
2022-07-26T13:49:23.333Z,1.00
2022-07-26T13:51:59.863Z,1.00
2022-07-26T13:54:34.617Z,1.00
2022-07-26T13:57:03.397Z,1.00
2022-07-26T13:59:30.775Z,1.00
2022-07-26T14:01:58.172Z,1.00
2022-07-26T14:04:25.479Z,1.00
2022-07-26T14:06:52.970Z,1.00
2022-07-26T14:09:20.759Z,1.00
2022-07-26T14:11:47.827Z,1.00
2022-07-26T14:14:15.186Z,1.00
2022-07-26T14:16:42.503Z,1.00
2022-07-26T14:19:09.469Z,1.00
2022-07-26T14:21:38.764Z,1.00
2022-07-26T14:24:16.650Z,1.00
2022-07-26T14:26:47.799Z,1.00
2022-07-26T14:29:15.221Z,1.00
2022-07-26T14:31:42.218Z,1.00
2022-07-26T14:34:09.406Z,1.00
2022-07-26T14:36:36.593Z,1.00
2022-07-26T14:39:03.557Z,1.00
2022-07-26T14:41:31.737Z,1.00
2022-07-26T14:43:58.698Z,1.00
2022-07-26T14:46:25.663Z,1.00
2022-07-26T14:48:54.903Z,1.00
2022-07-26T14:51:22.295Z,1.00
2022-07-26T14:53:49.188Z,1.00
2022-07-26T14:56:16.131Z,1.00
2022-07-26T14:58:43.016Z,1.00
2022-07-26T15:01:09.986Z,1.00
2022-07-26T15:03:36.909Z,1.00
2022-07-26T15:06:03.897Z,1.00
2022-07-26T15:08:30.775Z,1.00
2022-07-26T15:10:57.701Z,1.00
2022-07-26T15:13:24.637Z,1.00
2022-07-26T15:15:51.559Z,1.00
2022-07-26T15:18:18.430Z,1.00
2022-07-26T15:20:45.440Z,1.00
2022-07-26T15:23:15.079Z,1.00
2022-07-26T15:25:42.282Z,1.00
2022-07-26T15:28:09.325Z,1.00
2022-07-26T15:30:36.803Z,1.00
2022-07-26T15:33:03.797Z,1.00
2022-07-26T15:35:30.996Z,1.00
2022-07-26T15:37:58.288Z,1.00
2022-07-26T15:40:25.398Z,1.00
2022-07-26T15:42:53.076Z,1.00
2022-07-26T15:45:23.101Z,1.00
2022-07-26T15:47:55.897Z,1.00
2022-07-26T15:50:26.643Z,1.00
2022-07-26T15:52:53.531Z,1.00
2022-07-26T15:55:21.502Z,1.00
2022-07-26T15:57:48.576Z,1.00
2022-07-26T16:00:16.791Z,1.00
2022-07-26T16:02:44.170Z,1.00
2022-07-26T16:05:12.274Z,1.00
2022-07-26T16:07:43.825Z,1.00
2022-07-26T16:10:12.597Z,1.00
2022-07-26T16:12:40.841Z,1.00
2022-07-26T16:15:09.949Z,1.00
2022-07-26T16:17:37.437Z,1.00
2022-07-26T16:20:05.445Z,1.00
2022-07-26T16:22:33.128Z,1.00
2022-07-26T16:25:00.047Z,1.00
2022-07-26T16:27:27.001Z,1.00
2022-07-26T16:29:54.038Z,1.00
2022-07-26T16:32:21.634Z,1.00
2022-07-26T16:34:48.828Z,1.00
2022-07-26T16:37:15.992Z,1.00
2022-07-26T16:39:42.864Z,1.00
2022-07-26T16:42:09.802Z,1.00
2022-07-26T16:44:36.859Z,1.00
2022-07-26T16:47:04.711Z,1.00
2022-07-26T16:49:31.850Z,1.00
2022-07-26T16:51:58.891Z,1.00
2022-07-26T16:54:25.887Z,1.00
2022-07-26T16:56:52.921Z,1.00
2022-07-26T16:59:19.815Z,1.00
2022-07-26T17:01:46.776Z,1.00
2022-07-26T17:04:13.695Z,1.00
2022-07-26T17:06:40.638Z,1.00
2022-07-26T17:09:15.123Z,1.00
2022-07-26T17:11:42.614Z,1.00
2022-07-26T17:14:09.707Z,1.00
2022-07-26T17:16:37.455Z,1.00
2022-07-26T17:19:04.390Z,1.00
2022-07-26T17:21:31.304Z,1.00
2022-07-26T17:24:00.559Z,1.00
2022-07-26T17:26:30.887Z,1.00
2022-07-26T17:28:57.849Z,1.00
2022-07-26T17:31:25.036Z,1.00
2022-07-26T17:33:52.128Z,1.00
2022-07-26T17:36:27.032Z,1.00
2022-07-26T17:38:54.776Z,1.00
2022-07-26T17:41:23.156Z,1.00
2022-07-26T17:43:55.746Z,1.00
2022-07-26T17:46:22.871Z,1.00
2022-07-26T17:48:49.871Z,1.00
2022-07-26T17:51:18.150Z,1.00
2022-07-26T17:53:47.573Z,1.00
2022-07-26T17:56:17.554Z,1.00
2022-07-26T17:58:44.448Z,1.00
2022-07-26T18:01:11.506Z,1.00
2022-07-26T18:03:38.435Z,1.00
2022-07-26T18:06:06.715Z,1.00
2022-07-26T18:08:33.821Z,1.00
2022-07-26T18:11:02.854Z,1.00
2022-07-26T18:13:29.944Z,1.00
2022-07-26T18:15:58.271Z,1.00
2022-07-26T18:18:27.231Z,1.00
2022-07-26T18:20:54.820Z,1.00
2022-07-26T18:23:22.010Z,1.00
2022-07-26T18:25:48.914Z,1.00
2022-07-26T18:28:16.530Z,1.00
2022-07-26T18:30:43.998Z,1.00
2022-07-26T18:33:13.471Z,1.00
2022-07-26T18:35:40.469Z,1.00
2022-07-26T18:38:07.656Z,1.00
2022-07-26T18:40:34.600Z,1.00
2022-07-26T18:43:01.688Z,1.00
2022-07-26T18:45:28.618Z,1.00
2022-07-26T18:47:55.742Z,1.00
2022-07-26T18:50:23.481Z,1.00
2022-07-26T18:52:50.457Z,1.00
2022-07-26T18:55:17.432Z,1.00
2022-07-26T18:57:44.612Z,1.00
2022-07-26T19:00:14.595Z,1.00
2022-07-26T19:02:43.082Z,1.00
2022-07-26T19:05:10.623Z,1.00
2022-07-26T19:07:38.399Z,1.00
2022-07-26T19:10:07.557Z,1.00
2022-07-26T19:12:35.056Z,1.00
2022-07-26T19:15:02.509Z,1.00
2022-07-26T19:17:30.050Z,1.00
2022-07-26T19:19:57.752Z,1.00
2022-07-26T19:22:25.648Z,1.00
2022-07-26T19:24:52.902Z,1.00
2022-07-26T19:27:19.875Z,1.00
2022-07-26T19:29:47.039Z,1.00
2022-07-26T19:32:14.021Z,1.00
2022-07-26T19:34:40.940Z,1.00
2022-07-26T19:37:07.909Z,1.00
2022-07-26T19:39:34.795Z,1.00
2022-07-26T19:42:01.747Z,1.00
2022-07-26T19:44:28.650Z,1.00
2022-07-26T19:46:57.692Z,1.00
2022-07-26T19:49:25.287Z,1.00
2022-07-26T19:51:52.243Z,1.00
2022-07-26T19:54:19.186Z,1.00
2022-07-26T19:56:46.115Z,1.00
2022-07-26T19:59:15.026Z,1.00
2022-07-26T20:01:44.187Z,1.00
2022-07-26T20:04:11.125Z,1.00
2022-07-26T20:06:37.986Z,1.00
2022-07-26T20:09:05.143Z,1.00
2022-07-26T20:11:33.973Z,1.00
2022-07-26T20:14:01.271Z,1.00
2022-07-26T20:16:29.394Z,1.00
2022-07-26T20:18:56.416Z,1.00
2022-07-26T20:21:23.319Z,1.00
2022-07-26T20:23:50.321Z,1.00
2022-07-26T20:26:17.228Z,1.00
2022-07-26T20:28:44.266Z,1.00
2022-07-26T20:31:11.196Z,1.00
2022-07-26T20:33:38.178Z,1.00
2022-07-26T20:36:05.282Z,1.00
2022-07-26T20:38:32.142Z,1.00
2022-07-26T20:40:59.076Z,1.00
2022-07-26T20:43:29.905Z,1.00
2022-07-26T20:46:00.864Z,1.00
2022-07-26T20:48:27.848Z,1.00
2022-07-26T20:50:54.749Z,1.00
2022-07-26T20:53:21.734Z,1.00
2022-07-26T20:55:48.687Z,1.00
2022-07-26T20:58:15.664Z,1.00
2022-07-26T21:00:42.590Z,1.00
2022-07-26T21:03:09.961Z,1.00
2022-07-26T21:05:36.860Z,1.00
2022-07-26T21:08:04.137Z,1.00
2022-07-26T21:10:31.163Z,1.00
2022-07-26T21:13:00.401Z,1.00
2022-07-26T21:15:31.314Z,1.00
2022-07-26T21:17:58.813Z,1.00
2022-07-26T21:20:25.756Z,1.00
2022-07-26T21:22:52.739Z,1.00
2022-07-26T21:25:20.098Z,1.00
2022-07-26T21:27:46.992Z,1.00
2022-07-26T21:30:14.110Z,1.00
2022-07-26T21:32:41.015Z,1.00
2022-07-26T21:35:08.249Z,1.00
2022-07-26T21:37:35.118Z,1.00
2022-07-26T21:40:02.035Z,1.00
2022-07-26T21:42:29.014Z,1.00
2022-07-26T21:44:55.853Z,1.00
2022-07-26T21:47:22.803Z,1.00
2022-07-26T21:49:49.659Z,1.00
2022-07-26T21:52:16.609Z,1.00
2022-07-26T21:54:43.494Z,1.00
2022-07-26T21:57:10.490Z,1.00
2022-07-26T21:59:37.340Z,1.00
2022-07-26T22:02:04.316Z,1.00
2022-07-26T22:04:31.367Z,1.00
2022-07-26T22:06:58.278Z,1.00
2022-07-26T22:09:25.217Z,1.00
2022-07-26T22:11:53.416Z,1.00
2022-07-26T22:14:21.276Z,1.00
2022-07-26T22:16:49.246Z,1.00
2022-07-26T22:19:16.320Z,1.00
2022-07-26T22:21:43.355Z,1.00
2022-07-26T22:24:10.217Z,1.00
2022-07-26T22:26:38.061Z,1.00
2022-07-26T22:29:05.051Z,1.00
2022-07-26T22:31:32.046Z,1.00
2022-07-26T22:33:58.975Z,1.00
2022-07-26T22:36:25.871Z,1.00
2022-07-26T22:38:52.948Z,1.00
2022-07-26T22:41:20.096Z,1.00
2022-07-26T22:43:47.446Z,1.00
2022-07-26T22:46:14.420Z,1.00
2022-07-26T22:48:46.017Z,1.00
2022-07-26T22:51:14.798Z,1.00
2022-07-26T22:53:41.662Z,1.00
2022-07-26T22:56:08.638Z,1.00
2022-07-26T22:58:35.535Z,1.00
2022-07-26T23:01:02.633Z,1.00
2022-07-26T23:03:29.661Z,1.00
2022-07-26T23:05:57.186Z,1.00
2022-07-26T23:08:45.891Z,1.00
2022-07-26T23:11:11.010Z,1.00
2022-07-26T23:13:37.980Z,1.00
2022-07-26T23:16:05.576Z,1.00
2022-07-26T23:18:34.336Z,1.00
2022-07-26T23:21:01.374Z,1.00
2022-07-26T23:23:30.611Z,1.00
2022-07-26T23:25:59.076Z,1.00
2022-07-26T23:28:35.914Z,1.00
2022-07-26T23:31:11.775Z,1.00
2022-07-26T23:33:51.927Z,1.00
2022-07-26T23:36:22.942Z,1.00
2022-07-26T23:38:49.877Z,1.00
2022-07-26T23:41:16.832Z,1.00
2022-07-26T23:43:44.030Z,1.00
2022-07-26T23:46:10.971Z,1.00
2022-07-26T23:48:38.457Z,1.00
2022-07-26T23:51:05.473Z,1.00
2022-07-26T23:53:32.435Z,1.00
2022-07-26T23:55:59.354Z,1.00
2022-07-26T23:58:26.189Z,1.00
